createdAt,value
2022-11-15T00:12:42.339Z,11.57
2022-11-15T00:27:44.196Z,11.30
2022-11-15T00:42:46.935Z,11.10
2022-11-15T00:57:48.895Z,11.10
2022-11-15T01:12:51.499Z,10.43
2022-11-15T01:27:53.402Z,10.93
2022-11-15T01:42:55.278Z,9.97
2022-11-15T01:58:00.981Z,11.43
2022-11-15T02:13:05.257Z,12.10
2022-11-15T02:28:48.733Z,13.10
2022-11-15T02:43:57.824Z,10.83
2022-11-15T02:59:37.299Z,10.67
2022-11-15T03:15:05.882Z,11.03
2022-11-15T03:30:09.896Z,9.30
2022-11-15T03:45:24.166Z,10.93
2022-11-15T04:00:26.056Z,11.03
2022-11-15T04:15:28.094Z,11.90
2022-11-15T04:30:30.009Z,14.53
2022-11-15T04:45:31.999Z,13.87
2022-11-15T05:00:34.038Z,17.87
2022-11-15T05:15:37.920Z,19.73
2022-11-15T05:30:39.861Z,17.93
2022-11-15T05:45:41.726Z,15.70
2022-11-15T06:00:44.451Z,14.67
2022-11-15T06:15:46.780Z,15.30
2022-11-15T06:30:53.029Z,14.17
2022-11-15T06:45:55.263Z,12.07
2022-11-15T07:01:02.451Z,8.20
2022-11-15T07:16:10.030Z,6.73
2022-11-15T07:31:11.914Z,7.10
2022-11-15T07:46:14.124Z,7.70
2022-11-15T08:01:16.200Z,10.93
2022-11-15T08:16:18.358Z,6.63
2022-11-15T08:31:20.274Z,12.20
2022-11-15T08:46:22.146Z,6.23
2022-11-15T09:01:24.218Z,4.80
2022-11-15T09:16:28.504Z,4.20
2022-11-15T09:31:30.771Z,5.30
2022-11-15T09:47:07.685Z,2.60
2022-11-15T10:02:09.585Z,3.10
2022-11-15T10:17:17.587Z,2.80
2022-11-15T10:32:22.103Z,2.37
2022-11-15T10:47:37.740Z,1.90
2022-11-15T11:02:57.486Z,2.23
2022-11-15T11:18:10.801Z,2.17
2022-11-15T11:33:33.701Z,2.43
2022-11-15T11:48:42.838Z,2.30
2022-11-15T12:04:16.757Z,2.30
2022-11-15T12:19:18.826Z,2.23
2022-11-15T12:34:23.741Z,10.40
2022-11-15T12:49:28.412Z,2.67
2022-11-15T13:04:31.675Z,2.83
2022-11-15T13:19:33.978Z,4.53
2022-11-15T13:34:53.131Z,3.00
2022-11-15T13:49:58.597Z,2.90
2022-11-15T14:05:26.520Z,2.60
2022-11-15T14:20:33.354Z,3.57
2022-11-15T14:35:39.766Z,3.53
2022-11-15T14:50:41.696Z,3.30
2022-11-15T15:05:44.998Z,2.97
2022-11-15T15:20:58.634Z,3.70
2022-11-15T15:36:00.674Z,4.93
2022-11-15T15:51:07.299Z,6.77
2022-11-15T16:06:48.245Z,6.87
2022-11-15T16:36:52.544Z,6.17
2022-11-15T16:51:54.496Z,6.97
2022-11-15T17:06:56.414Z,4.73
2022-11-15T17:21:58.719Z,6.53
2022-11-15T17:37:17.971Z,5.20
2022-11-15T17:52:19.809Z,6.20
2022-11-15T18:07:21.727Z,7.07
2022-11-15T18:22:23.791Z,5.83
2022-11-15T18:37:26.397Z,5.50
2022-11-15T18:52:30.101Z,4.63
2022-11-15T19:07:32.106Z,3.97
2022-11-15T19:22:34.194Z,4.87
2022-11-15T19:37:36.283Z,5.43
2022-11-15T19:52:38.190Z,5.40
2022-11-15T20:07:40.245Z,4.87
2022-11-15T20:22:48.603Z,5.07
2022-11-15T20:37:50.469Z,4.90
2022-11-15T20:52:52.966Z,5.33
2022-11-15T21:07:54.839Z,6.80
2022-11-15T21:22:56.915Z,5.30
2022-11-15T21:37:58.977Z,3.73
2022-11-15T21:53:00.955Z,6.97
2022-11-15T22:08:02.894Z,5.50
2022-11-15T22:23:05.580Z,6.17
2022-11-15T22:38:08.376Z,5.63
2022-11-15T22:53:10.478Z,7.47
2022-11-15T23:08:13.194Z,6.40
2022-11-15T23:23:15.369Z,8.30
2022-11-15T23:38:17.306Z,6.97
2022-11-15T23:53:19.350Z,6.90
